Hauptseite
METAR-TAF:

METAR-TAF

Flughäfen :

Fliegerhorst Hohn

Hohn, Deutschland

Breite: 54-19N, Länge: 009-32E, Höhe: 12 m

Beobachtung

Neuester Wetterbericht von vor 3 Stunden und 23 Minuten, um 20:20 UTC
Wind 5 kt aus Süd/Südwest
Temperatur 10°C
Luftfeuchtigkeit 76%
Luftdruck 1035 hPa
Sichtweite 10 km oder mehr
Durchbrochene Bewölkung in der Höhe von 26000 ft

METAR: ETNH 252020Z 21005KT 9999 BKN260 10/06 Q1035 BLU+BLU+

Zeit: 01:43 (23:43 UTC)


TAF: fehlend

Wetterbeobachtungen und Prognosen von mehr als 4000 Flughäfen (METAR und TAF Bericht).

Die verfügbaren Stationen werden durch gelbe und rote Markierungen auf der Karte dargestellt.

Führen Sie die Maus auf sie, um den Namen der Station zu sehen.

Darauf klicken, um die Beobachtung von Wetterbeobachtungen und Prognosen zu sehen.

Um die Karte zu ändern : klicken Sie auf den grünen Tasten mit einem schwarzen Kreuz Zum Vergrößern, auf den grünen Button mit einem Gedankenstrich zu verkleinern, oder auf die grünen Pfeile für benachbarte Karten.


METAR-TAF: